sensor_id;sensor_type;location;lat;lon;timestamp;P1;durP1;ratioP1;P2;durP2;ratioP2
38725;SDS011;24474;48.906;8.808;2023-07-31T00:00:57;4.72;;;1.60;;
38725;SDS011;24474;48.906;8.808;2023-07-31T00:03:24;3.15;;;1.17;;
38725;SDS011;24474;48.906;8.808;2023-07-31T00:05:49;3.75;;;1.27;;
38725;SDS011;24474;48.906;8.808;2023-07-31T00:08:15;8.27;;;1.40;;
38725;SDS011;24474;48.906;8.808;2023-07-31T00:10:40;4.80;;;1.52;;
38725;SDS011;24474;48.906;8.808;2023-07-31T00:13:06;4.50;;;1.50;;
38725;SDS011;24474;48.906;8.808;2023-07-31T00:15:31;5.28;;;1.48;;
38725;SDS011;24474;48.906;8.808;2023-07-31T00:17:57;3.38;;;1.48;;
38725;SDS011;24474;48.906;8.808;2023-07-31T00:20:23;4.20;;;1.50;;
38725;SDS011;24474;48.906;8.808;2023-07-31T00:22:48;3.97;;;1.30;;
38725;SDS011;24474;48.906;8.808;2023-07-31T00:25:14;4.10;;;1.10;;
38725;SDS011;24474;48.906;8.808;2023-07-31T00:27:39;4.18;;;1.23;;
38725;SDS011;24474;48.906;8.808;2023-07-31T00:30:09;1.77;;;1.00;;
38725;SDS011;24474;48.906;8.808;2023-07-31T00:32:35;4.90;;;1.17;;
38725;SDS011;24474;48.906;8.808;2023-07-31T00:35:01;4.50;;;1.23;;
38725;SDS011;24474;48.906;8.808;2023-07-31T00:37:27;3.60;;;1.10;;
38725;SDS011;24474;48.906;8.808;2023-07-31T00:39:53;4.28;;;1.30;;
38725;SDS011;24474;48.906;8.808;2023-07-31T00:42:18;4.28;;;1.25;;
38725;SDS011;24474;48.906;8.808;2023-07-31T00:44:44;5.25;;;1.48;;
38725;SDS011;24474;48.906;8.808;2023-07-31T00:47:14;3.83;;;1.20;;
38725;SDS011;24474;48.906;8.808;2023-07-31T00:49:41;3.08;;;1.13;;
38725;SDS011;24474;48.906;8.808;2023-07-31T00:52:07;4.57;;;1.40;;
38725;SDS011;24474;48.906;8.808;2023-07-31T00:54:34;5.10;;;1.35;;
38725;SDS011;24474;48.906;8.808;2023-07-31T00:56:59;5.38;;;1.50;;
38725;SDS011;24474;48.906;8.808;2023-07-31T00:59:25;3.35;;;1.40;;
38725;SDS011;24474;48.906;8.808;2023-07-31T01:01:51;4.80;;;1.30;;
38725;SDS011;24474;48.906;8.808;2023-07-31T01:04:17;4.90;;;1.27;;
38725;SDS011;24474;48.906;8.808;2023-07-31T01:06:57;2.83;;;1.27;;
38725;SDS011;24474;48.906;8.808;2023-07-31T01:09:43;6.70;;;1.33;;
38725;SDS011;24474;48.906;8.808;2023-07-31T01:12:29;9.18;;;1.73;;
38725;SDS011;24474;48.906;8.808;2023-07-31T01:17:32;3.17;;;1.10;;
38725;SDS011;24474;48.906;8.808;2023-07-31T01:20:01;4.28;;;1.40;;
38725;SDS011;24474;48.906;8.808;2023-07-31T01:22:31;7.40;;;1.42;;
38725;SDS011;24474;48.906;8.808;2023-07-31T01:25:16;4.10;;;1.20;;
38725;SDS011;24474;48.906;8.808;2023-07-31T01:28:02;5.60;;;1.58;;
38725;SDS011;24474;48.906;8.808;2023-07-31T01:30:34;6.05;;;1.52;;
38725;SDS011;24474;48.906;8.808;2023-07-31T01:33:06;5.63;;;1.40;;
38725;SDS011;24474;48.906;8.808;2023-07-31T01:35:33;3.78;;;1.30;;
38725;SDS011;24474;48.906;8.808;2023-07-31T01:37:59;3.53;;;1.25;;
38725;SDS011;24474;48.906;8.808;2023-07-31T01:40:25;7.13;;;1.45;;
38725;SDS011;24474;48.906;8.808;2023-07-31T01:42:54;3.17;;;1.40;;
38725;SDS011;24474;48.906;8.808;2023-07-31T01:45:21;4.30;;;1.35;;
38725;SDS011;24474;48.906;8.808;2023-07-31T01:47:52;4.13;;;1.30;;
38725;SDS011;24474;48.906;8.808;2023-07-31T01:50:19;4.00;;;1.52;;
38725;SDS011;24474;48.906;8.808;2023-07-31T01:52:45;4.65;;;1.15;;
38725;SDS011;24474;48.906;8.808;2023-07-31T01:55:12;2.60;;;1.17;;
38725;SDS011;24474;48.906;8.808;2023-07-31T01:57:43;6.55;;;1.50;;
38725;SDS011;24474;48.906;8.808;2023-07-31T02:00:09;7.28;;;1.73;;
38725;SDS011;24474;48.906;8.808;2023-07-31T02:02:35;4.53;;;1.58;;
38725;SDS011;24474;48.906;8.808;2023-07-31T02:05:04;3.75;;;1.38;;
38725;SDS011;24474;48.906;8.808;2023-07-31T02:07:31;4.97;;;1.67;;
38725;SDS011;24474;48.906;8.808;2023-07-31T02:09:58;4.53;;;1.45;;
38725;SDS011;24474;48.906;8.808;2023-07-31T02:12:25;4.05;;;1.58;;
38725;SDS011;24474;48.906;8.808;2023-07-31T02:14:52;3.40;;;1.30;;
38725;SDS011;24474;48.906;8.808;2023-07-31T02:17:20;5.57;;;1.50;;
38725;SDS011;24474;48.906;8.808;2023-07-31T02:19:48;5.75;;;1.60;;
38725;SDS011;24474;48.906;8.808;2023-07-31T02:22:15;3.75;;;1.65;;
38725;SDS011;24474;48.906;8.808;2023-07-31T02:24:41;6.95;;;1.70;;
38725;SDS011;24474;48.906;8.808;2023-07-31T02:27:07;7.35;;;1.35;;
38725;SDS011;24474;48.906;8.808;2023-07-31T02:29:36;3.08;;;1.35;;
38725;SDS011;24474;48.906;8.808;2023-07-31T02:32:03;6.63;;;1.50;;
38725;SDS011;24474;48.906;8.808;2023-07-31T02:34:30;4.35;;;1.50;;
38725;SDS011;24474;48.906;8.808;2023-07-31T02:36:57;4.97;;;1.50;;
38725;SDS011;24474;48.906;8.808;2023-07-31T02:39:23;3.28;;;1.33;;
38725;SDS011;24474;48.906;8.808;2023-07-31T02:41:50;3.63;;;1.50;;
38725;SDS011;24474;48.906;8.808;2023-07-31T02:44:17;3.65;;;1.63;;
38725;SDS011;24474;48.906;8.808;2023-07-31T02:46:44;4.18;;;1.50;;
38725;SDS011;24474;48.906;8.808;2023-07-31T02:49:10;4.65;;;1.58;;
38725;SDS011;24474;48.906;8.808;2023-07-31T02:51:36;4.38;;;1.52;;
38725;SDS011;24474;48.906;8.808;2023-07-31T02:54:01;3.55;;;1.50;;
38725;SDS011;24474;48.906;8.808;2023-07-31T02:56:27;5.43;;;1.40;;
38725;SDS011;24474;48.906;8.808;2023-07-31T02:58:52;5.05;;;1.67;;
38725;SDS011;24474;48.906;8.808;2023-07-31T03:01:18;4.03;;;1.50;;
38725;SDS011;24474;48.906;8.808;2023-07-31T03:03:44;5.47;;;1.70;;
38725;SDS011;24474;48.906;8.808;2023-07-31T03:06:10;3.90;;;1.42;;
38725;SDS011;24474;48.906;8.808;2023-07-31T03:08:35;4.47;;;1.48;;
38725;SDS011;24474;48.906;8.808;2023-07-31T03:11:01;4.82;;;1.65;;
38725;SDS011;24474;48.906;8.808;2023-07-31T03:13:26;1.80;;;1.30;;
38725;SDS011;24474;48.906;8.808;2023-07-31T03:15:52;4.63;;;1.70;;
38725;SDS011;24474;48.906;8.808;2023-07-31T03:18:18;5.10;;;1.90;;
38725;SDS011;24474;48.906;8.808;2023-07-31T03:20:43;4.90;;;1.52;;
38725;SDS011;24474;48.906;8.808;2023-07-31T03:23:09;4.35;;;1.50;;
38725;SDS011;24474;48.906;8.808;2023-07-31T03:25:35;5.57;;;1.55;;
38725;SDS011;24474;48.906;8.808;2023-07-31T03:28:00;2.80;;;1.50;;
38725;SDS011;24474;48.906;8.808;2023-07-31T03:30:26;3.70;;;1.60;;
38725;SDS011;24474;48.906;8.808;2023-07-31T03:32:52;5.38;;;1.90;;
38725;SDS011;24474;48.906;8.808;2023-07-31T03:35:17;2.92;;;1.60;;
38725;SDS011;24474;48.906;8.808;2023-07-31T03:37:43;5.70;;;1.55;;
38725;SDS011;24474;48.906;8.808;2023-07-31T03:40:09;2.75;;;1.40;;
38725;SDS011;24474;48.906;8.808;2023-07-31T03:42:35;3.90;;;1.48;;
38725;SDS011;24474;48.906;8.808;2023-07-31T03:45:00;3.80;;;1.40;;
38725;SDS011;24474;48.906;8.808;2023-07-31T03:47:26;4.28;;;1.50;;
38725;SDS011;24474;48.906;8.808;2023-07-31T03:49:52;4.18;;;1.58;;
38725;SDS011;24474;48.906;8.808;2023-07-31T03:52:18;4.85;;;1.48;;
38725;SDS011;24474;48.906;8.808;2023-07-31T03:54:43;3.50;;;1.70;;
38725;SDS011;24474;48.906;8.808;2023-07-31T03:57:12;4.82;;;1.35;;
38725;SDS011;24474;48.906;8.808;2023-07-31T03:59:37;5.53;;;1.60;;
38725;SDS011;24474;48.906;8.808;2023-07-31T04:02:04;6.90;;;1.60;;
38725;SDS011;24474;48.906;8.808;2023-07-31T04:04:30;2.53;;;1.30;;
38725;SDS011;24474;48.906;8.808;2023-07-31T04:06:56;3.42;;;1.33;;
38725;SDS011;24474;48.906;8.808;2023-07-31T04:09:21;4.13;;;1.35;;
38725;SDS011;24474;48.906;8.808;2023-07-31T04:11:49;3.10;;;1.52;;
38725;SDS011;24474;48.906;8.808;2023-07-31T04:16:44;7.90;;;1.77;;
38725;SDS011;24474;48.906;8.808;2023-07-31T04:19:10;9.23;;;1.80;;
38725;SDS011;24474;48.906;8.808;2023-07-31T04:21:35;5.00;;;1.80;;
38725;SDS011;24474;48.906;8.808;2023-07-31T04:24:01;4.00;;;1.77;;
38725;SDS011;24474;48.906;8.808;2023-07-31T04:26:26;8.65;;;1.75;;
38725;SDS011;24474;48.906;8.808;2023-07-31T04:28:52;4.95;;;1.35;;
38725;SDS011;24474;48.906;8.808;2023-07-31T04:31:17;2.78;;;1.40;;
38725;SDS011;24474;48.906;8.808;2023-07-31T04:33:43;4.55;;;1.42;;
38725;SDS011;24474;48.906;8.808;2023-07-31T04:36:09;5.60;;;1.73;;
38725;SDS011;24474;48.906;8.808;2023-07-31T04:38:34;5.57;;;1.65;;
38725;SDS011;24474;48.906;8.808;2023-07-31T04:41:00;4.70;;;1.75;;
38725;SDS011;24474;48.906;8.808;2023-07-31T04:43:26;3.80;;;1.60;;
38725;SDS011;24474;48.906;8.808;2023-07-31T04:45:51;5.65;;;1.67;;
38725;SDS011;24474;48.906;8.808;2023-07-31T04:48:19;4.55;;;1.70;;
38725;SDS011;24474;48.906;8.808;2023-07-31T04:50:44;4.82;;;1.75;;
38725;SDS011;24474;48.906;8.808;2023-07-31T04:53:10;4.65;;;1.67;;
38725;SDS011;24474;48.906;8.808;2023-07-31T04:55:36;5.45;;;1.60;;
38725;SDS011;24474;48.906;8.808;2023-07-31T04:58:01;3.20;;;1.30;;
38725;SDS011;24474;48.906;8.808;2023-07-31T05:00:27;4.50;;;1.85;;
38725;SDS011;24474;48.906;8.808;2023-07-31T05:02:53;5.55;;;1.90;;
38725;SDS011;24474;48.906;8.808;2023-07-31T05:05:18;3.97;;;1.73;;
38725;SDS011;24474;48.906;8.808;2023-07-31T05:07:45;4.05;;;1.50;;
38725;SDS011;24474;48.906;8.808;2023-07-31T05:10:11;4.70;;;1.40;;
38725;SDS011;24474;48.906;8.808;2023-07-31T05:12:38;4.80;;;1.65;;
38725;SDS011;24474;48.906;8.808;2023-07-31T05:15:04;2.85;;;1.50;;
38725;SDS011;24474;48.906;8.808;2023-07-31T05:17:32;4.18;;;1.60;;
38725;SDS011;24474;48.906;8.808;2023-07-31T05:20:00;5.07;;;1.80;;
38725;SDS011;24474;48.906;8.808;2023-07-31T05:22:25;3.80;;;1.40;;
38725;SDS011;24474;48.906;8.808;2023-07-31T05:24:51;4.22;;;1.60;;
38725;SDS011;24474;48.906;8.808;2023-07-31T05:27:19;5.15;;;1.63;;
38725;SDS011;24474;48.906;8.808;2023-07-31T05:29:45;4.93;;;2.17;;
38725;SDS011;24474;48.906;8.808;2023-07-31T05:32:10;3.75;;;1.60;;
38725;SDS011;24474;48.906;8.808;2023-07-31T05:34:36;4.63;;;1.60;;
38725;SDS011;24474;48.906;8.808;2023-07-31T05:37:02;6.07;;;2.03;;
38725;SDS011;24474;48.906;8.808;2023-07-31T05:39:29;4.50;;;1.60;;
38725;SDS011;24474;48.906;8.808;2023-07-31T05:41:56;2.97;;;1.60;;
38725;SDS011;24474;48.906;8.808;2023-07-31T05:44:23;5.93;;;1.60;;
38725;SDS011;24474;48.906;8.808;2023-07-31T05:46:52;5.75;;;1.70;;
38725;SDS011;24474;48.906;8.808;2023-07-31T05:49:20;6.93;;;1.90;;
38725;SDS011;24474;48.906;8.808;2023-07-31T05:51:46;8.02;;;2.10;;
38725;SDS011;24474;48.906;8.808;2023-07-31T05:54:13;7.10;;;1.80;;
38725;SDS011;24474;48.906;8.808;2023-07-31T05:56:40;8.57;;;2.10;;
38725;SDS011;24474;48.906;8.808;2023-07-31T05:59:08;5.43;;;1.90;;
38725;SDS011;24474;48.906;8.808;2023-07-31T06:01:36;4.80;;;1.70;;
38725;SDS011;24474;48.906;8.808;2023-07-31T06:04:03;6.18;;;1.90;;
38725;SDS011;24474;48.906;8.808;2023-07-31T06:06:28;4.30;;;1.50;;
38725;SDS011;24474;48.906;8.808;2023-07-31T06:08:55;7.50;;;1.80;;
38725;SDS011;24474;48.906;8.808;2023-07-31T06:11:22;5.28;;;1.88;;
38725;SDS011;24474;48.906;8.808;2023-07-31T06:13:49;6.03;;;1.92;;
38725;SDS011;24474;48.906;8.808;2023-07-31T06:16:17;6.95;;;2.05;;
38725;SDS011;24474;48.906;8.808;2023-07-31T06:18:44;6.32;;;1.95;;
38725;SDS011;24474;48.906;8.808;2023-07-31T06:21:09;4.28;;;1.70;;
38725;SDS011;24474;48.906;8.808;2023-07-31T06:23:36;4.15;;;1.80;;
38725;SDS011;24474;48.906;8.808;2023-07-31T06:26:02;5.05;;;2.20;;
38725;SDS011;24474;48.906;8.808;2023-07-31T06:28:29;5.28;;;1.80;;
38725;SDS011;24474;48.906;8.808;2023-07-31T06:30:58;5.75;;;2.15;;
38725;SDS011;24474;48.906;8.808;2023-07-31T06:33:27;3.63;;;1.70;;
38725;SDS011;24474;48.906;8.808;2023-07-31T06:35:54;4.25;;;1.45;;
38725;SDS011;24474;48.906;8.808;2023-07-31T06:38:25;3.67;;;1.60;;
38725;SDS011;24474;48.906;8.808;2023-07-31T06:40:53;5.47;;;1.67;;
38725;SDS011;24474;48.906;8.808;2023-07-31T06:43:20;4.50;;;1.52;;
38725;SDS011;24474;48.906;8.808;2023-07-31T06:45:47;4.20;;;1.63;;
38725;SDS011;24474;48.906;8.808;2023-07-31T06:48:16;6.00;;;1.92;;
38725;SDS011;24474;48.906;8.808;2023-07-31T06:50:43;3.70;;;1.52;;
38725;SDS011;24474;48.906;8.808;2023-07-31T06:53:10;3.47;;;1.58;;
38725;SDS011;24474;48.906;8.808;2023-07-31T06:55:37;3.17;;;1.58;;
38725;SDS011;24474;48.906;8.808;2023-07-31T06:58:04;4.45;;;2.22;;
38725;SDS011;24474;48.906;8.808;2023-07-31T07:00:31;6.60;;;1.83;;
38725;SDS011;24474;48.906;8.808;2023-07-31T07:02:58;4.65;;;1.80;;
38725;SDS011;24474;48.906;8.808;2023-07-31T07:05:25;4.32;;;1.65;;
38725;SDS011;24474;48.906;8.808;2023-07-31T07:07:55;7.80;;;2.10;;
38725;SDS011;24474;48.906;8.808;2023-07-31T07:10:22;5.72;;;1.50;;
38725;SDS011;24474;48.906;8.808;2023-07-31T07:12:49;4.03;;;1.75;;
38725;SDS011;24474;48.906;8.808;2023-07-31T07:15:16;4.20;;;1.58;;
38725;SDS011;24474;48.906;8.808;2023-07-31T07:17:43;8.68;;;1.95;;
38725;SDS011;24474;48.906;8.808;2023-07-31T07:20:10;5.68;;;1.60;;
38725;SDS011;24474;48.906;8.808;2023-07-31T07:22:36;2.95;;;1.40;;
38725;SDS011;24474;48.906;8.808;2023-07-31T07:25:03;6.43;;;1.98;;
38725;SDS011;24474;48.906;8.808;2023-07-31T07:27:31;5.13;;;1.70;;
38725;SDS011;24474;48.906;8.808;2023-07-31T07:29:57;4.25;;;1.60;;
38725;SDS011;24474;48.906;8.808;2023-07-31T07:32:25;6.40;;;1.90;;
38725;SDS011;24474;48.906;8.808;2023-07-31T07:34:50;5.50;;;1.88;;
38725;SDS011;24474;48.906;8.808;2023-07-31T07:37:18;4.28;;;1.60;;
38725;SDS011;24474;48.906;8.808;2023-07-31T07:39:43;4.30;;;1.80;;
38725;SDS011;24474;48.906;8.808;2023-07-31T07:42:10;4.53;;;1.52;;
38725;SDS011;24474;48.906;8.808;2023-07-31T07:44:37;6.90;;;1.70;;
38725;SDS011;24474;48.906;8.808;2023-07-31T07:47:04;3.95;;;1.60;;
38725;SDS011;24474;48.906;8.808;2023-07-31T07:49:34;3.00;;;1.55;;
38725;SDS011;24474;48.906;8.808;2023-07-31T07:52:01;5.18;;;1.75;;
38725;SDS011;24474;48.906;8.808;2023-07-31T07:54:31;4.72;;;1.73;;
38725;SDS011;24474;48.906;8.808;2023-07-31T07:56:58;6.07;;;1.80;;
38725;SDS011;24474;48.906;8.808;2023-07-31T07:59:25;5.15;;;1.58;;
38725;SDS011;24474;48.906;8.808;2023-07-31T08:01:54;5.55;;;1.55;;
38725;SDS011;24474;48.906;8.808;2023-07-31T08:04:21;5.68;;;1.92;;
38725;SDS011;24474;48.906;8.808;2023-07-31T08:06:48;5.03;;;1.85;;
38725;SDS011;24474;48.906;8.808;2023-07-31T08:09:13;4.47;;;1.65;;
38725;SDS011;24474;48.906;8.808;2023-07-31T08:11:39;4.18;;;1.27;;
38725;SDS011;24474;48.906;8.808;2023-07-31T08:14:05;7.28;;;1.73;;
38725;SDS011;24474;48.906;8.808;2023-07-31T08:16:30;3.30;;;1.50;;
38725;SDS011;24474;48.906;8.808;2023-07-31T08:18:57;5.97;;;1.75;;
38725;SDS011;24474;48.906;8.808;2023-07-31T08:21:24;4.10;;;1.73;;
38725;SDS011;24474;48.906;8.808;2023-07-31T08:23:50;3.70;;;1.90;;
38725;SDS011;24474;48.906;8.808;2023-07-31T08:26:17;6.43;;;1.65;;
38725;SDS011;24474;48.906;8.808;2023-07-31T08:28:44;4.78;;;1.80;;
38725;SDS011;24474;48.906;8.808;2023-07-31T08:31:10;5.10;;;1.83;;
38725;SDS011;24474;48.906;8.808;2023-07-31T08:33:38;4.80;;;1.83;;
38725;SDS011;24474;48.906;8.808;2023-07-31T08:36:06;6.30;;;1.92;;
38725;SDS011;24474;48.906;8.808;2023-07-31T08:38:33;5.65;;;1.77;;
38725;SDS011;24474;48.906;8.808;2023-07-31T08:41:00;5.93;;;1.77;;
38725;SDS011;24474;48.906;8.808;2023-07-31T08:43:27;5.18;;;1.80;;
38725;SDS011;24474;48.906;8.808;2023-07-31T08:45:52;4.80;;;2.00;;
38725;SDS011;24474;48.906;8.808;2023-07-31T08:48:19;4.57;;;2.10;;
38725;SDS011;24474;48.906;8.808;2023-07-31T08:50:47;6.65;;;1.85;;
38725;SDS011;24474;48.906;8.808;2023-07-31T08:53:13;10.85;;;2.45;;
38725;SDS011;24474;48.906;8.808;2023-07-31T08:55:40;6.82;;;2.33;;
38725;SDS011;24474;48.906;8.808;2023-07-31T08:58:06;4.70;;;2.22;;
38725;SDS011;24474;48.906;8.808;2023-07-31T09:00:34;6.53;;;2.40;;
38725;SDS011;24474;48.906;8.808;2023-07-31T09:03:15;6.43;;;2.35;;
38725;SDS011;24474;48.906;8.808;2023-07-31T09:05:45;7.05;;;2.20;;
38725;SDS011;24474;48.906;8.808;2023-07-31T09:08:13;6.45;;;2.40;;
38725;SDS011;24474;48.906;8.808;2023-07-31T09:10:46;5.55;;;2.20;;
38725;SDS011;24474;48.906;8.808;2023-07-31T09:13:12;4.07;;;2.08;;
38725;SDS011;24474;48.906;8.808;2023-07-31T09:15:40;5.53;;;2.28;;
38725;SDS011;24474;48.906;8.808;2023-07-31T09:18:11;4.75;;;1.90;;
38725;SDS011;24474;48.906;8.808;2023-07-31T09:20:37;7.05;;;2.28;;
38725;SDS011;24474;48.906;8.808;2023-07-31T09:25:37;7.40;;;2.10;;
38725;SDS011;24474;48.906;8.808;2023-07-31T09:28:09;5.88;;;2.28;;
38725;SDS011;24474;48.906;8.808;2023-07-31T09:30:46;6.13;;;2.50;;
38725;SDS011;24474;48.906;8.808;2023-07-31T09:33:15;4.80;;;2.20;;
38725;SDS011;24474;48.906;8.808;2023-07-31T09:35:42;6.75;;;2.17;;
38725;SDS011;24474;48.906;8.808;2023-07-31T09:38:10;7.18;;;2.28;;
38725;SDS011;24474;48.906;8.808;2023-07-31T09:40:41;5.85;;;2.35;;
38725;SDS011;24474;48.906;8.808;2023-07-31T09:43:10;6.10;;;2.33;;
38725;SDS011;24474;48.906;8.808;2023-07-31T09:45:38;5.72;;;2.28;;
38725;SDS011;24474;48.906;8.808;2023-07-31T09:48:09;5.15;;;2.00;;
38725;SDS011;24474;48.906;8.808;2023-07-31T09:50:38;8.05;;;2.30;;
38725;SDS011;24474;48.906;8.808;2023-07-31T09:53:04;5.15;;;1.90;;
38725;SDS011;24474;48.906;8.808;2023-07-31T09:55:31;6.47;;;2.42;;
38725;SDS011;24474;48.906;8.808;2023-07-31T09:58:06;6.18;;;2.38;;
38725;SDS011;24474;48.906;8.808;2023-07-31T10:00:34;6.13;;;2.25;;
38725;SDS011;24474;48.906;8.808;2023-07-31T10:03:02;5.22;;;2.00;;
38725;SDS011;24474;48.906;8.808;2023-07-31T10:05:35;5.35;;;2.20;;
38725;SDS011;24474;48.906;8.808;2023-07-31T10:08:21;5.55;;;2.28;;
38725;SDS011;24474;48.906;8.808;2023-07-31T10:10:48;7.32;;;2.38;;
38725;SDS011;24474;48.906;8.808;2023-07-31T10:13:17;8.02;;;2.58;;
38725;SDS011;24474;48.906;8.808;2023-07-31T10:15:48;6.70;;;2.67;;
38725;SDS011;24474;48.906;8.808;2023-07-31T10:18:15;6.38;;;1.98;;
38725;SDS011;24474;48.906;8.808;2023-07-31T10:20:43;5.68;;;2.30;;
38725;SDS011;24474;48.906;8.808;2023-07-31T10:23:09;5.63;;;1.90;;
38725;SDS011;24474;48.906;8.808;2023-07-31T10:25:35;5.20;;;2.15;;
38725;SDS011;24474;48.906;8.808;2023-07-31T10:28:04;7.50;;;2.45;;
38725;SDS011;24474;48.906;8.808;2023-07-31T10:30:32;4.68;;;2.20;;
38725;SDS011;24474;48.906;8.808;2023-07-31T10:33:01;6.82;;;2.00;;
38725;SDS011;24474;48.906;8.808;2023-07-31T10:38:20;7.88;;;2.33;;
38725;SDS011;24474;48.906;8.808;2023-07-31T10:40:48;6.95;;;2.40;;
38725;SDS011;24474;48.906;8.808;2023-07-31T10:43:25;5.28;;;2.42;;
38725;SDS011;24474;48.906;8.808;2023-07-31T10:45:53;6.90;;;2.22;;
38725;SDS011;24474;48.906;8.808;2023-07-31T10:48:20;5.47;;;2.10;;
38725;SDS011;24474;48.906;8.808;2023-07-31T10:50:55;5.93;;;2.28;;
38725;SDS011;24474;48.906;8.808;2023-07-31T10:53:29;5.65;;;2.15;;
38725;SDS011;24474;48.906;8.808;2023-07-31T10:56:00;6.60;;;2.25;;
38725;SDS011;24474;48.906;8.808;2023-07-31T10:58:31;7.72;;;2.63;;
38725;SDS011;24474;48.906;8.808;2023-07-31T11:00:59;10.02;;;2.47;;
38725;SDS011;24474;48.906;8.808;2023-07-31T11:06:13;7.70;;;2.67;;
38725;SDS011;24474;48.906;8.808;2023-07-31T11:08:47;7.10;;;2.25;;
38725;SDS011;24474;48.906;8.808;2023-07-31T11:11:16;5.90;;;2.47;;
38725;SDS011;24474;48.906;8.808;2023-07-31T11:13:43;5.28;;;2.05;;
38725;SDS011;24474;48.906;8.808;2023-07-31T11:16:11;6.10;;;2.35;;
38725;SDS011;24474;48.906;8.808;2023-07-31T11:18:42;6.07;;;2.20;;
38725;SDS011;24474;48.906;8.808;2023-07-31T11:21:13;6.32;;;2.22;;
38725;SDS011;24474;48.906;8.808;2023-07-31T11:23:40;5.25;;;2.30;;
38725;SDS011;24474;48.906;8.808;2023-07-31T11:26:07;6.50;;;2.75;;
38725;SDS011;24474;48.906;8.808;2023-07-31T11:28:33;5.35;;;2.30;;
38725;SDS011;24474;48.906;8.808;2023-07-31T11:31:00;5.90;;;2.30;;
38725;SDS011;24474;48.906;8.808;2023-07-31T11:33:27;7.07;;;2.50;;
38725;SDS011;24474;48.906;8.808;2023-07-31T11:35:54;6.20;;;2.47;;
38725;SDS011;24474;48.906;8.808;2023-07-31T11:38:26;3.80;;;2.03;;
38725;SDS011;24474;48.906;8.808;2023-07-31T11:40:56;5.72;;;2.20;;
38725;SDS011;24474;48.906;8.808;2023-07-31T11:43:24;7.18;;;2.13;;
38725;SDS011;24474;48.906;8.808;2023-07-31T11:45:50;5.35;;;2.42;;
38725;SDS011;24474;48.906;8.808;2023-07-31T11:48:30;5.85;;;2.38;;
38725;SDS011;24474;48.906;8.808;2023-07-31T11:51:05;4.65;;;2.10;;
38725;SDS011;24474;48.906;8.808;2023-07-31T11:54:16;5.95;;;2.17;;
38725;SDS011;24474;48.906;8.808;2023-07-31T11:56:26;7.63;;;2.10;;
38725;SDS011;24474;48.906;8.808;2023-07-31T11:58:58;5.45;;;2.30;;
38725;SDS011;24474;48.906;8.808;2023-07-31T12:01:26;7.15;;;2.47;;
38725;SDS011;24474;48.906;8.808;2023-07-31T12:03:56;5.55;;;2.22;;
38725;SDS011;24474;48.906;8.808;2023-07-31T12:06:33;4.47;;;2.10;;
38725;SDS011;24474;48.906;8.808;2023-07-31T12:09:06;4.30;;;2.08;;
38725;SDS011;24474;48.906;8.808;2023-07-31T12:11:42;6.20;;;2.03;;
38725;SDS011;24474;48.906;8.808;2023-07-31T12:14:20;4.72;;;1.77;;
38725;SDS011;24474;48.906;8.808;2023-07-31T12:16:54;5.75;;;2.15;;
38725;SDS011;24474;48.906;8.808;2023-07-31T12:19:28;4.97;;;2.05;;
38725;SDS011;24474;48.906;8.808;2023-07-31T12:21:59;5.72;;;2.08;;
38725;SDS011;24474;48.906;8.808;2023-07-31T12:24:29;5.38;;;1.80;;
38725;SDS011;24474;48.906;8.808;2023-07-31T12:26:56;5.05;;;1.85;;
38725;SDS011;24474;48.906;8.808;2023-07-31T12:29:22;6.00;;;2.13;;
38725;SDS011;24474;48.906;8.808;2023-07-31T12:31:47;6.32;;;2.20;;
38725;SDS011;24474;48.906;8.808;2023-07-31T12:34:17;3.88;;;1.92;;
38725;SDS011;24474;48.906;8.808;2023-07-31T12:36:43;8.05;;;2.28;;
38725;SDS011;24474;48.906;8.808;2023-07-31T12:39:09;4.10;;;1.80;;
38725;SDS011;24474;48.906;8.808;2023-07-31T12:41:35;4.00;;;2.00;;
38725;SDS011;24474;48.906;8.808;2023-07-31T12:44:02;5.60;;;2.20;;
38725;SDS011;24474;48.906;8.808;2023-07-31T12:46:28;5.90;;;2.17;;
38725;SDS011;24474;48.906;8.808;2023-07-31T12:48:54;5.43;;;2.20;;
38725;SDS011;24474;48.906;8.808;2023-07-31T12:51:19;5.45;;;2.17;;
38725;SDS011;24474;48.906;8.808;2023-07-31T12:53:46;5.13;;;2.00;;
38725;SDS011;24474;48.906;8.808;2023-07-31T12:56:11;6.15;;;1.95;;
38725;SDS011;24474;48.906;8.808;2023-07-31T12:58:37;4.07;;;1.92;;
38725;SDS011;24474;48.906;8.808;2023-07-31T13:01:03;5.40;;;2.00;;
38725;SDS011;24474;48.906;8.808;2023-07-31T13:03:28;9.38;;;2.35;;
38725;SDS011;24474;48.906;8.808;2023-07-31T13:05:54;4.03;;;2.10;;
38725;SDS011;24474;48.906;8.808;2023-07-31T13:08:20;5.60;;;2.15;;
38725;SDS011;24474;48.906;8.808;2023-07-31T13:10:45;5.18;;;2.20;;
38725;SDS011;24474;48.906;8.808;2023-07-31T13:13:12;3.70;;;1.92;;
38725;SDS011;24474;48.906;8.808;2023-07-31T13:15:38;3.80;;;1.75;;
38725;SDS011;24474;48.906;8.808;2023-07-31T13:18:04;4.00;;;1.80;;
38725;SDS011;24474;48.906;8.808;2023-07-31T13:20:30;8.85;;;2.30;;
38725;SDS011;24474;48.906;8.808;2023-07-31T13:22:55;5.47;;;1.80;;
38725;SDS011;24474;48.906;8.808;2023-07-31T13:25:22;5.25;;;2.00;;
38725;SDS011;24474;48.906;8.808;2023-07-31T13:27:50;5.75;;;2.15;;
38725;SDS011;24474;48.906;8.808;2023-07-31T13:30:16;5.25;;;1.77;;
38725;SDS011;24474;48.906;8.808;2023-07-31T13:32:42;4.80;;;1.98;;
38725;SDS011;24474;48.906;8.808;2023-07-31T13:35:07;4.47;;;1.95;;
38725;SDS011;24474;48.906;8.808;2023-07-31T13:37:34;5.45;;;2.00;;
38725;SDS011;24474;48.906;8.808;2023-07-31T13:40:01;5.07;;;1.80;;
38725;SDS011;24474;48.906;8.808;2023-07-31T13:42:31;4.50;;;1.80;;
38725;SDS011;24474;48.906;8.808;2023-07-31T13:44:58;4.63;;;1.83;;
38725;SDS011;24474;48.906;8.808;2023-07-31T13:47:25;5.53;;;1.60;;
38725;SDS011;24474;48.906;8.808;2023-07-31T13:49:52;4.40;;;1.80;;
38725;SDS011;24474;48.906;8.808;2023-07-31T13:52:18;5.22;;;1.70;;
38725;SDS011;24474;48.906;8.808;2023-07-31T13:54:45;3.97;;;1.70;;
38725;SDS011;24474;48.906;8.808;2023-07-31T13:57:11;3.78;;;1.73;;
38725;SDS011;24474;48.906;8.808;2023-07-31T13:59:37;5.38;;;1.95;;
38725;SDS011;24474;48.906;8.808;2023-07-31T14:02:04;4.93;;;2.08;;
38725;SDS011;24474;48.906;8.808;2023-07-31T14:04:31;4.82;;;1.73;;
38725;SDS011;24474;48.906;8.808;2023-07-31T14:06:56;6.07;;;1.80;;
38725;SDS011;24474;48.906;8.808;2023-07-31T14:09:24;5.22;;;1.92;;
38725;SDS011;24474;48.906;8.808;2023-07-31T14:11:52;5.35;;;2.00;;
38725;SDS011;24474;48.906;8.808;2023-07-31T14:14:19;5.78;;;2.10;;
38725;SDS011;24474;48.906;8.808;2023-07-31T14:16:46;5.03;;;2.00;;
38725;SDS011;24474;48.906;8.808;2023-07-31T14:19:12;7.57;;;1.75;;
38725;SDS011;24474;48.906;8.808;2023-07-31T14:21:38;4.20;;;1.88;;
38725;SDS011;24474;48.906;8.808;2023-07-31T14:24:06;6.05;;;2.13;;
38725;SDS011;24474;48.906;8.808;2023-07-31T14:26:31;3.58;;;1.92;;
38725;SDS011;24474;48.906;8.808;2023-07-31T14:28:58;4.45;;;2.05;;
38725;SDS011;24474;48.906;8.808;2023-07-31T14:31:25;7.30;;;2.05;;
38725;SDS011;24474;48.906;8.808;2023-07-31T14:33:52;5.93;;;2.00;;
38725;SDS011;24474;48.906;8.808;2023-07-31T14:36:19;5.00;;;1.90;;
38725;SDS011;24474;48.906;8.808;2023-07-31T14:38:45;7.53;;;1.80;;
38725;SDS011;24474;48.906;8.808;2023-07-31T14:41:11;4.57;;;1.70;;
38725;SDS011;24474;48.906;8.808;2023-07-31T14:43:38;7.70;;;2.00;;
38725;SDS011;24474;48.906;8.808;2023-07-31T14:46:07;5.70;;;1.85;;
38725;SDS011;24474;48.906;8.808;2023-07-31T14:48:32;3.65;;;1.85;;
38725;SDS011;24474;48.906;8.808;2023-07-31T14:50:58;5.68;;;1.90;;
38725;SDS011;24474;48.906;8.808;2023-07-31T14:53:23;6.25;;;2.33;;
38725;SDS011;24474;48.906;8.808;2023-07-31T14:55:50;4.35;;;1.92;;
38725;SDS011;24474;48.906;8.808;2023-07-31T14:58:17;4.57;;;2.00;;
38725;SDS011;24474;48.906;8.808;2023-07-31T15:00:44;4.18;;;2.00;;
38725;SDS011;24474;48.906;8.808;2023-07-31T15:03:10;3.88;;;1.70;;